Time;durP1;ratioP1;P1;durP2;ratioP2;P2;SDS_P1;SDS_P2;PMS_P1;PMS_P2;Temp;Humidity;BMP_temperature;BMP_pressure;BME280_temperature;BME280_humidity;BME280_pressure;Samples;Min_cycle;Max_cycle;Signal;HPM_P1;HPM_P2
2022/05/13 00:01:12;;;;;;;7.75;3.55;;;;;;;12.65;58.58;100764.95;1713809;83;25923;-75
2022/05/13 00:03:39;;;;;;;9.25;3.60;;;;;;;12.63;58.58;100760.78;1724978;83;26558;-75
2022/05/13 00:06:07;;;;;;;5.20;3.20;;;;;;;12.59;58.65;100760.86;1700439;83;26446;-76
2022/05/13 00:08:33;;;;;;;8.10;3.98;;;;;;;12.55;58.58;100764.97;1725051;83;27471;-75
2022/05/13 00:11:03;;;;;;;5.58;3.40;;;;;;;12.53;58.79;100760.31;1703830;83;26487;-75
2022/05/13 00:13:29;;;;;;;8.20;3.95;;;;;;;12.52;59.02;100758.13;1697980;83;25801;-75
2022/05/13 00:15:57;;;;;;;12.20;3.70;;;;;;;12.52;59.01;100753.26;1713633;81;25796;-75
2022/05/13 00:18:23;;;;;;;7.55;3.58;;;;;;;12.50;59.26;100755.31;1706592;83;25952;-75
2022/05/13 00:20:49;;;;;;;6.47;3.70;;;;;;;12.46;59.20;100758.91;1715982;83;27475;-75
2022/05/13 00:23:15;;;;;;;7.85;3.70;;;;;;;12.42;59.47;100756.80;1725208;83;26711;-75
2022/05/13 00:25:41;;;;;;;7.17;3.75;;;;;;;12.34;59.56;100754.56;1714040;83;25832;-75
2022/05/13 00:28:09;;;;;;;11.18;4.15;;;;;;;12.30;59.67;100757.33;1713932;83;25829;-75
2022/05/13 00:30:41;;;;;;;4.75;3.40;;;;;;;12.27;59.80;100754.21;1712016;83;25876;-75
2022/05/13 00:33:09;;;;;;;6.20;3.87;;;;;;;12.23;59.93;100754.28;1711010;83;27460;-75
2022/05/13 00:35:37;;;;;;;9.28;4.08;;;;;;;12.22;59.94;100762.00;1685351;84;26036;-75
2022/05/13 00:38:04;;;;;;;9.05;4.10;;;;;;;12.18;60.14;100755.36;1722534;83;25790;-75
2022/05/13 00:40:31;;;;;;;7.03;4.00;;;;;;;12.12;60.14;100752.95;1709120;83;26535;-75
2022/05/13 00:43:01;;;;;;;4.92;3.92;;;;;;;12.10;60.35;100762.22;1709399;83;25768;-75
2022/05/13 00:45:28;;;;;;;7.80;4.17;;;;;;;12.05;60.30;100760.61;1711317;81;27503;-75
2022/05/13 00:47:55;;;;;;;6.17;3.70;;;;;;;12.02;60.62;100758.30;1715199;83;25893;-75
2022/05/13 00:50:21;;;;;;;6.70;3.80;;;;;;;11.99;60.57;100761.38;1711981;83;25903;-75
2022/05/13 00:52:51;;;;;;;9.38;4.05;;;;;;;11.94;60.82;100765.14;1713951;83;25456;-75
2022/05/13 00:55:26;;;;;;;10.03;3.70;;;;;;;11.91;60.95;100759.64;1711291;83;26329;-75
2022/05/13 00:57:53;;;;;;;8.93;3.50;;;;;;;11.89;61.05;100767.05;1721092;83;27472;-75
2022/05/13 01:00:20;;;;;;;7.37;4.47;;;;;;;11.90;61.17;100765.20;1715110;83;25748;-75
2022/05/13 01:02:46;;;;;;;7.55;3.55;;;;;;;11.92;61.00;100757.80;1711336;83;25724;-75
2022/05/13 01:05:16;;;;;;;9.40;3.92;;;;;;;11.93;61.03;100761.62;1710573;82;25804;-75
2022/05/13 01:07:42;;;;;;;7.50;4.28;;;;;;;11.93;61.21;100762.96;1686786;83;26145;-75
2022/05/13 01:10:14;;;;;;;7.60;4.28;;;;;;;11.86;61.21;100777.35;1696462;83;28309;-75
2022/05/13 01:12:43;;;;;;;9.70;4.25;;;;;;;11.78;61.43;100762.22;1701909;83;26517;-76
2022/05/13 01:15:18;;;;;;;7.65;5.53;;;;;;;11.73;61.48;100759.26;1683106;84;25835;-75
2022/05/13 01:20:36;;;;;;;10.95;4.12;;;;;;;11.69;62.16;100767.38;1681709;84;25933;-74
2022/05/13 01:23:10;;;;;;;9.45;6.25;;;;;;;11.68;62.28;100771.06;1715021;83;27467;-74
2022/05/13 01:25:47;;;;;;;8.10;4.30;;;;;;;11.62;62.44;100768.61;1684105;84;25939;-74
2022/05/13 01:28:18;;;;;;;6.85;3.98;;;;;;;11.56;62.61;100773.89;1704998;83;25740;-74
2022/05/13 01:30:50;;;;;;;9.28;4.55;;;;;;;11.47;62.97;100766.47;1682504;84;26222;-74
2022/05/13 01:33:17;;;;;;;7.83;3.92;;;;;;;11.41;63.29;100768.56;1703048;83;25748;-74
2022/05/13 01:35:48;;;;;;;9.30;4.58;;;;;;;11.40;63.29;100778.12;1681932;83;27501;-74
2022/05/13 01:38:18;;;;;;;9.10;4.50;;;;;;;11.40;63.27;100764.20;1715422;83;33202;-74
2022/05/13 01:40:44;;;;;;;10.17;4.40;;;;;;;11.44;63.28;100764.15;1673732;84;25895;-74
2022/05/13 01:43:10;;;;;;;8.48;4.53;;;;;;;11.47;63.14;100773.17;1703355;83;25986;-74
2022/05/13 01:45:38;;;;;;;13.85;5.15;;;;;;;11.50;63.35;100766.08;1684068;84;25927;-74
2022/05/13 01:48:07;;;;;;;7.70;5.30;;;;;;;11.49;63.48;100769.80;1703581;83;28257;-74
2022/05/13 01:50:35;;;;;;;7.28;4.22;;;;;;;11.45;63.52;100764.48;1680733;84;25784;-74
2022/05/13 01:53:01;;;;;;;8.03;4.55;;;;;;;11.43;63.47;100763.00;1706370;83;25911;-75
2022/05/13 01:55:27;;;;;;;9.48;4.65;;;;;;;11.45;63.85;100763.64;1660589;85;26686;-74
2022/05/13 01:57:53;;;;;;;5.05;4.15;;;;;;;11.48;64.00;100761.95;1656429;85;25768;-74
2022/05/13 02:00:20;;;;;;;7.72;4.78;;;;;;;11.47;64.01;100755.73;1709368;83;27455;-74
2022/05/13 02:05:31;;;;;;;8.53;4.58;;;;;;;11.52;64.02;100760.55;1715710;83;26077;-74
2022/05/13 02:07:57;;;;;;;8.33;4.47;;;;;;;11.50;64.03;100762.05;1704110;83;26596;-74
2022/05/13 02:10:24;;;;;;;8.83;4.17;;;;;;;11.51;64.26;100763.73;1672595;84;25758;-75
2022/05/13 02:12:50;;;;;;;6.58;4.33;;;;;;;11.51;64.23;100760.20;1698166;83;27535;-74
2022/05/13 02:15:17;;;;;;;8.83;4.22;;;;;;;11.49;64.37;100767.61;1709347;82;25750;-74
2022/05/13 02:17:43;;;;;;;7.83;4.03;;;;;;;11.48;64.46;100761.41;1697143;83;25789;-74
2022/05/13 02:20:11;;;;;;;11.08;4.12;;;;;;;11.51;64.36;100762.89;1700735;83;25891;-74
2022/05/13 02:22:37;;;;;;;8.25;4.10;;;;;;;11.52;64.43;100753.33;1702815;83;25804;-74
2022/05/13 02:25:06;;;;;;;6.55;4.12;;;;;;;11.52;64.31;100747.97;1684755;84;26915;-74
2022/05/13 02:27:32;;;;;;;8.88;4.62;;;;;;;11.50;64.25;100748.64;1701122;83;26639;-75
2022/05/13 02:29:59;;;;;;;9.55;4.40;;;;;;;11.47;64.22;100747.69;1694406;84;26535;-74
2022/05/13 02:32:25;;;;;;;8.40;4.60;;;;;;;11.40;64.26;100744.09;1714916;83;25770;-74
2022/05/13 02:34:51;;;;;;;7.33;4.37;;;;;;;11.36;64.43;100738.78;1692182;83;25372;-74
2022/05/13 02:37:18;;;;;;;8.93;4.50;;;;;;;11.32;64.41;100740.69;1705092;83;27924;-74
2022/05/13 02:39:44;;;;;;;12.00;4.03;;;;;;;11.28;64.50;100737.56;1694119;84;25884;-75
2022/05/13 02:42:10;;;;;;;6.28;4.37;;;;;;;11.25;64.51;100739.27;1704563;83;25283;-74
2022/05/13 02:44:36;;;;;;;8.40;4.62;;;;;;;11.17;64.49;100735.36;1664504;86;26820;-75
2022/05/13 02:47:03;;;;;;;9.73;5.22;;;;;;;11.10;64.51;100739.79;1716840;83;25297;-74
2022/05/13 02:49:30;;;;;;;9.33;4.90;;;;;;;11.02;64.62;100739.06;1723101;83;27469;-74
2022/05/13 02:51:56;;;;;;;8.93;4.92;;;;;;;10.95;64.79;100742.99;1723211;83;26425;-74
2022/05/13 02:54:22;;;;;;;8.25;4.92;;;;;;;10.85;64.84;100738.43;1677262;83;25814;-74
2022/05/13 02:56:48;;;;;;;10.00;5.20;;;;;;;10.75;65.05;100741.40;1681654;84;26441;-74
2022/05/13 02:59:14;;;;;;;10.23;5.10;;;;;;;10.66;65.09;100726.92;1723595;83;25832;-74
2022/05/13 03:01:41;;;;;;;7.00;5.17;;;;;;;10.65;65.29;100734.12;1722942;83;27463;-74
2022/05/13 03:04:07;;;;;;;9.68;5.67;;;;;;;10.66;65.54;100725.58;1725056;81;25940;-74
2022/05/13 03:06:34;;;;;;;9.25;4.90;;;;;;;10.62;65.74;100733.67;1725456;83;25812;-74
2022/05/13 03:09:00;;;;;;;13.08;5.78;;;;;;;10.59;65.82;100730.00;1725327;83;25773;-74
2022/05/13 03:11:26;;;;;;;8.13;4.90;;;;;;;10.59;66.02;100731.34;1670730;84;25745;-73
2022/05/13 03:13:53;;;;;;;8.43;4.70;;;;;;;10.55;65.99;100736.25;1718241;83;28341;-74
2022/05/13 03:16:23;;;;;;;8.63;5.17;;;;;;;10.54;66.12;100731.08;1698057;83;25759;-74
2022/05/13 03:18:55;;;;;;;7.42;4.55;;;;;;;10.58;66.08;100741.75;1698690;83;25838;-74
2022/05/13 03:21:24;;;;;;;10.50;4.75;;;;;;;10.60;66.19;100732.52;1708044;83;26391;-75
2022/05/13 03:23:51;;;;;;;8.85;4.55;;;;;;;10.62;66.26;100735.84;1716821;83;25868;-75
2022/05/13 03:26:21;;;;;;;8.60;5.05;;;;;;;10.66;66.35;100734.96;1710837;81;28284;-75
2022/05/13 03:28:48;;;;;;;7.12;5.00;;;;;;;10.71;66.50;100734.72;1719562;83;25845;-75
2022/05/13 03:31:15;;;;;;;7.40;4.50;;;;;;;10.71;66.42;100729.89;1707849;83;25786;-75
2022/05/13 03:33:41;;;;;;;11.05;4.97;;;;;;;10.68;66.35;100733.77;1683238;84;26474;-74
2022/05/13 03:36:14;;;;;;;8.55;4.50;;;;;;;10.68;66.40;100736.45;1710061;81;25876;-75
2022/05/13 03:38:37;;;;;;;7.67;5.03;;;;;;;10.72;66.47;100735.06;1717686;83;28299;-75
2022/05/13 03:41:03;;;;;;;6.42;4.58;;;;;;;10.78;66.49;100732.97;1677696;84;26176;-75
2022/05/13 03:43:31;;;;;;;7.30;4.30;;;;;;;10.82;66.46;100731.59;1693064;83;26439;-76
2022/05/13 03:45:57;;;;;;;8.30;4.53;;;;;;;10.86;66.48;100735.55;1673881;84;26463;-75
2022/05/13 03:48:24;;;;;;;7.17;4.03;;;;;;;10.94;66.51;100739.17;1692163;83;25926;-79
2022/05/13 03:50:50;;;;;;;11.15;5.28;;;;;;;11.00;66.39;100733.90;1698880;83;27469;-76
2022/05/13 03:53:16;;;;;;;12.58;4.95;;;;;;;11.11;66.45;100730.75;1693918;83;25582;-75
2022/05/13 03:55:45;;;;;;;7.25;4.60;;;;;;;11.29;66.37;100733.84;1702613;83;25983;-75
2022/05/13 03:58:11;;;;;;;7.92;5.87;;;;;;;11.40;66.49;100737.39;1708194;83;25883;-75
2022/05/13 04:00:38;;;;;;;9.10;5.28;;;;;;;11.37;66.16;100730.23;1667633;85;25826;-75
2022/05/13 04:03:04;;;;;;;11.57;5.45;;;;;;;11.32;66.17;100729.45;1702268;83;27471;-74
2022/05/13 04:11:00;;;;;;;10.40;4.83;;;;;;;11.32;66.54;100725.94;1706385;83;25900;-75
2022/05/13 04:16:11;;;;;;;7.00;4.40;;;;;;;11.49;66.90;100728.72;1723809;81;28306;-74
2022/05/13 04:18:47;;;;;;;7.58;3.90;;;;;;;11.56;66.98;100731.81;1725351;83;25906;-74
2022/05/13 04:21:18;;;;;;;6.40;4.20;;;;;;;11.65;66.85;100726.62;1725900;83;25886;-74
2022/05/13 04:23:48;;;;;;;10.45;4.17;;;;;;;11.71;66.60;100729.10;1723571;83;26461;-74
2022/05/13 04:26:15;;;;;;;4.75;3.92;;;;;;;11.80;66.70;100725.78;1725700;81;25955;-74
2022/05/13 04:28:46;;;;;;;7.47;4.15;;;;;;;11.90;66.52;100725.78;1725487;83;28336;-74
2022/05/13 04:31:15;;;;;;;6.78;4.00;;;;;;;11.99;66.56;100727.32;1715155;83;25811;-73
2022/05/13 04:33:42;;;;;;;8.85;4.28;;;;;;;12.07;66.56;100722.31;1712085;83;25730;-74
2022/05/13 04:36:09;;;;;;;6.05;4.55;;;;;;;12.16;66.78;100727.38;1713359;81;25875;-74
2022/05/13 04:38:36;;;;;;;10.63;4.70;;;;;;;12.23;66.88;100726.89;1715673;83;26477;-74
2022/05/13 04:43:50;;;;;;;6.90;3.75;;;;;;;12.35;66.55;100725.86;1713983;83;25782;-74
2022/05/13 04:46:17;;;;;;;5.65;3.52;;;;;;;12.45;66.36;100730.38;1711193;81;26184;-74
2022/05/13 04:48:44;;;;;;;9.83;3.95;;;;;;;12.54;66.09;100720.30;1708738;83;25838;-74
2022/05/13 04:51:10;;;;;;;6.58;3.58;;;;;;;12.63;65.95;100722.66;1708429;83;25800;-74
2022/05/13 04:53:38;;;;;;;5.92;3.60;;;;;;;12.72;65.79;100723.33;1720580;83;28096;-74
2022/05/13 04:56:08;;;;;;;5.87;3.80;;;;;;;12.82;65.49;100719.25;1717637;83;25721;-74
2022/05/13 04:58:34;;;;;;;8.05;3.27;;;;;;;12.92;65.46;100720.22;1710546;83;25575;-74
2022/05/13 05:01:03;;;;;;;4.62;3.27;;;;;;;13.02;65.25;100724.20;1707026;83;25881;-74
2022/05/13 05:03:31;;;;;;;7.20;3.37;;;;;;;13.12;65.11;100723.38;1675066;84;25941;-74
2022/05/13 05:05:58;;;;;;;6.65;4.08;;;;;;;13.24;64.50;100716.89;1704900;82;27522;-74
2022/05/13 05:08:27;;;;;;;4.37;3.15;;;;;;;13.34;64.32;100715.19;1681032;84;26718;-74
2022/05/13 05:10:53;;;;;;;7.35;3.60;;;;;;;13.42;64.22;100708.27;1689332;84;26398;-74
2022/05/13 05:13:24;;;;;;;8.55;3.85;;;;;;;13.54;64.03;100714.70;1711068;83;25873;-74
2022/05/13 05:15:51;;;;;;;5.37;3.62;;;;;;;13.65;63.75;100713.61;1711529;81;25879;-74
2022/05/13 05:18:17;;;;;;;4.67;3.17;;;;;;;13.77;63.71;100715.20;1712397;83;27528;-74
2022/05/13 05:20:45;;;;;;;7.35;3.92;;;;;;;13.87;63.22;100709.73;1712995;83;26361;-74
2022/05/13 05:23:25;;;;;;;8.23;3.72;;;;;;;13.98;63.12;100712.33;1702728;83;25778;-74
2022/05/13 05:25:51;;;;;;;7.10;3.70;;;;;;;14.09;63.15;100713.06;1696842;83;25734;-74
2022/05/13 05:28:17;;;;;;;4.28;3.27;;;;;;;14.20;62.85;100711.61;1699115;83;25812;-74
2022/05/13 05:30:44;;;;;;;6.95;3.40;;;;;;;14.31;62.61;100707.79;1693916;83;28279;-74
2022/05/13 05:33:11;;;;;;;7.25;3.42;;;;;;;14.38;61.51;100714.52;1695886;83;26617;-74
2022/05/13 05:35:38;;;;;;;4.40;3.27;;;;;;;14.45;61.61;100713.50;1699289;83;26544;-74
2022/05/13 05:38:05;;;;;;;6.90;4.00;;;;;;;14.51;61.85;100712.66;1694617;83;26064;-74
2022/05/13 05:40:32;;;;;;;7.70;3.62;;;;;;;14.61;62.21;100715.74;1703540;83;25816;-74
2022/05/13 05:43:06;;;;;;;5.53;3.87;;;;;;;14.69;61.81;100709.31;1715104;83;27467;-74
2022/05/13 05:45:32;;;;;;;9.48;3.95;;;;;;;14.80;61.84;100711.34;1699962;83;26571;-74
2022/05/13 05:47:59;;;;;;;5.70;3.42;;;;;;;14.90;61.87;100713.09;1684292;84;25942;-74
2022/05/13 05:50:26;;;;;;;6.95;3.70;;;;;;;15.03;62.01;100713.57;1700226;83;26333;-74
2022/05/13 05:52:52;;;;;;;6.50;3.50;;;;;;;15.15;61.69;100714.55;1683945;84;25947;-73
2022/05/13 05:58:10;;;;;;;8.10;4.35;;;;;;;15.37;60.92;100719.45;1694174;84;25939;-74
2022/05/13 06:00:41;;;;;;;42.60;25.43;;;;;;;15.48;61.05;100720.68;1702504;83;25749;-74
2022/05/13 06:03:08;;;;;;;13.43;7.42;;;;;;;15.60;61.08;100715.41;1692209;84;26530;-74
2022/05/13 06:05:34;;;;;;;13.48;7.25;;;;;;;15.72;60.22;100717.20;1714646;82;25957;-74
2022/05/13 06:08:03;;;;;;;9.88;3.87;;;;;;;15.83;60.25;100725.13;1693953;84;27488;-74
2022/05/13 06:10:32;;;;;;;5.28;3.45;;;;;;;15.94;59.59;100718.52;1699470;83;26038;-74
2022/05/13 06:12:58;;;;;;;10.38;3.25;;;;;;;16.04;59.57;100718.85;1651728;85;26488;-74
2022/05/13 06:15:24;;;;;;;6.83;3.58;;;;;;;16.13;59.33;100718.89;1699057;83;25837;-74
2022/05/13 06:17:55;;;;;;;4.70;2.90;;;;;;;16.21;59.06;100717.26;1682913;84;25847;-74
2022/05/13 06:20:29;;;;;;;6.83;3.27;;;;;;;16.33;58.77;100716.03;1723950;83;27479;-75
2022/05/13 06:22:57;;;;;;;7.45;3.37;;;;;;;16.44;58.68;100724.78;1714391;83;25836;-74
2022/05/13 06:25:23;;;;;;;5.10;3.02;;;;;;;16.54;58.67;100721.06;1711179;83;25836;-74
2022/05/13 06:27:52;;;;;;;3.45;2.60;;;;;;;16.67;58.41;100726.35;1725506;83;25854;-74
2022/05/13 06:30:27;;;;;;;8.83;2.45;;;;;;;16.75;57.58;100720.64;1714952;83;25843;-74
2022/05/13 06:32:54;;;;;;;7.92;3.20;;;;;;;16.83;57.23;100720.34;1703446;83;27564;-74
2022/05/13 06:35:22;;;;;;;6.60;3.30;;;;;;;16.91;57.45;100717.88;1722690;81;26394;-74
2022/05/13 06:37:49;;;;;;;7.90;2.65;;;;;;;17.02;57.29;100714.44;1714576;83;25946;-74
2022/05/13 06:40:15;;;;;;;5.10;2.77;;;;;;;17.11;56.71;100714.41;1713686;83;26367;-74
2022/05/13 06:42:41;;;;;;;8.55;3.27;;;;;;;17.21;56.06;100716.59;1711432;83;25810;-74
2022/05/13 06:45:08;;;;;;;7.78;2.62;;;;;;;17.32;56.92;100714.48;1715306;81;27454;-74
2022/05/13 06:47:36;;;;;;;9.78;2.58;;;;;;;17.40;55.58;100719.06;1712009;83;25992;-74
2022/05/13 06:50:09;;;;;;;7.67;2.10;;;;;;;17.47;54.16;100716.27;1714513;83;25756;-74
2022/05/13 06:52:35;;;;;;;3.95;2.15;;;;;;;17.50;54.21;100716.66;1712305;83;25827;-75
2022/05/13 06:55:03;;;;;;;4.05;1.87;;;;;;;17.56;54.14;100720.32;1723512;81;25883;-74
2022/05/13 06:57:29;;;;;;;5.25;1.62;;;;;;;17.63;53.99;100719.19;1723005;83;27531;-74
2022/05/13 06:59:55;;;;;;;2.90;2.05;;;;;;;17.71;52.79;100714.80;1706317;83;25847;-74
2022/05/13 07:02:23;;;;;;;6.75;2.15;;;;;;;17.76;52.76;100718.17;1710419;83;25772;-75
2022/05/13 07:04:50;;;;;;;5.20;1.60;;;;;;;17.81;52.71;100707.48;1702639;83;25925;-74
2022/05/13 07:07:16;;;;;;;2.25;1.40;;;;;;;17.88;51.72;100710.09;1703294;83;25828;-74
2022/05/13 07:09:43;;;;;;;4.10;1.85;;;;;;;17.97;52.29;100703.25;1701499;83;27397;-74
2022/05/13 07:12:10;;;;;;;2.80;1.30;;;;;;;18.07;52.12;100702.18;1709529;83;25896;-74
2022/05/13 07:14:37;;;;;;;4.20;1.75;;;;;;;18.15;52.24;100699.95;1699313;82;25880;-74
2022/05/13 07:17:04;;;;;;;3.85;1.52;;;;;;;18.25;51.57;100698.00;1699499;83;26534;-74
2022/05/13 07:19:31;;;;;;;4.10;1.45;;;;;;;18.34;51.13;100701.51;1699168;83;25796;-75
2022/05/13 07:21:57;;;;;;;6.65;1.62;;;;;;;18.39;50.07;100692.11;1711088;83;28277;-74
2022/05/13 07:24:24;;;;;;;2.95;1.17;;;;;;;18.43;50.29;100688.42;1702789;82;25757;-74
2022/05/13 07:26:50;;;;;;;5.62;1.72;;;;;;;18.47;49.34;100690.98;1704916;83;25847;-74
2022/05/13 07:29:17;;;;;;;4.20;1.37;;;;;;;18.52;48.79;100682.94;1682264;84;26291;-74
2022/05/13 07:31:43;;;;;;;3.00;1.30;;;;;;;18.58;49.00;100677.13;1699483;83;26583;-74
2022/05/13 07:34:09;;;;;;;6.33;0.80;;;;;;;18.65;48.75;100679.19;1698892;83;28340;-75
2022/05/13 07:36:35;;;;;;;3.15;0.80;;;;;;;18.74;46.99;100679.09;1710304;83;25804;-74
2022/05/13 07:41:48;;;;;;;1.47;0.70;;;;;;;18.89;47.37;100678.08;1683622;84;25913;-74
2022/05/13 07:44:14;;;;;;;9.53;4.30;;;;;;;18.97;47.39;100682.60;1714746;81;26459;-75
2022/05/13 07:46:40;;;;;;;8.83;3.02;;;;;;;19.03;46.03;100686.27;1711200;83;28852;-75
2022/05/13 07:49:08;;;;;;;5.78;1.50;;;;;;;19.07;45.54;100676.05;1720191;83;25832;-75
2022/05/13 07:51:34;;;;;;;6.45;1.82;;;;;;;19.10;45.34;100680.14;1715151;83;25824;-75
2022/05/13 07:54:01;;;;;;;5.37;1.40;;;;;;;19.12;45.39;100681.56;1716951;83;25798;-74
2022/05/13 07:56:27;;;;;;;4.33;1.40;;;;;;;19.19;45.52;100675.47;1713004;83;26173;-74
2022/05/13 07:58:57;;;;;;;3.83;1.42;;;;;;;19.22;44.35;100670.89;1715879;83;26961;-74
2022/05/13 08:01:24;;;;;;;1.80;1.10;;;;;;;19.28;45.00;100677.27;1711357;83;26522;-75
2022/05/13 08:03:50;;;;;;;4.92;1.30;;;;;;;19.33;44.90;100684.17;1715548;83;26581;-74
2022/05/13 08:06:17;;;;;;;2.20;0.80;;;;;;;19.39;44.94;100680.52;1711888;81;26231;-74
2022/05/13 08:08:46;;;;;;;6.42;1.35;;;;;;;19.47;44.08;100682.00;1717322;83;25880;-75
2022/05/13 08:11:16;;;;;;;4.00;1.00;;;;;;;19.54;44.61;100682.69;1707247;83;27492;-75
2022/05/13 08:13:42;;;;;;;2.87;0.80;;;;;;;19.61;43.93;100677.38;1705837;83;25965;-75
2022/05/13 08:16:13;;;;;;;3.67;1.07;;;;;;;19.63;43.09;100684.76;1718108;83;25965;-75
2022/05/13 08:18:41;;;;;;;2.42;0.88;;;;;;;19.65;43.18;100681.26;1714596;83;26334;-75
2022/05/13 08:21:08;;;;;;;6.85;0.80;;;;;;;19.65;42.49;100673.66;1713493;83;26016;-74
2022/05/13 08:23:34;;;;;;;5.55;0.98;;;;;;;19.67;42.74;100676.96;1715344;83;27450;-75
2022/05/13 08:26:01;;;;;;;4.50;1.20;;;;;;;19.74;43.25;100681.16;1713282;81;25819;-75
2022/05/13 08:28:27;;;;;;;1.62;1.07;;;;;;;19.82;42.54;100672.59;1721841;83;25750;-75
2022/05/13 08:30:54;;;;;;;2.02;0.90;;;;;;;19.94;43.39;100673.90;1707107;83;26542;-75
2022/05/13 08:33:21;;;;;;;2.67;0.72;;;;;;;19.99;42.60;100665.84;1696721;83;25966;-75
2022/05/13 08:35:55;;;;;;;5.55;2.83;;;;;;;20.02;41.20;100666.69;1713652;83;28244;-75
2022/05/13 08:38:25;;;;;;;7.78;4.58;;;;;;;20.02;42.16;100665.89;1725048;83;25741;-75
2022/05/13 08:41:09;;;;;;;2.98;1.80;;;;;;;20.00;40.82;100661.51;1725407;83;25815;-74
2022/05/13 08:43:46;;;;;;;4.75;1.52;;;;;;;19.93;41.88;100670.35;1708223;83;25454;-75
2022/05/13 08:46:42;;;;;;;2.60;1.10;;;;;;;19.77;40.93;100663.55;1705370;83;25848;-74
2022/05/13 08:49:35;;;;;;;4.35;0.98;;;;;;;19.74;41.24;100650.43;1718048;83;28380;-75
2022/05/13 08:54:40;;;;;;;4.97;1.07;;;;;;;20.02;41.23;100646.86;1588292;85;26142;-75
2022/05/13 08:57:10;;;;;;;2.72;0.85;;;;;;;19.96;41.00;100648.12;1696545;83;25907;-75
2022/05/13 08:59:49;;;;;;;4.65;1.20;;;;;;;19.90;40.06;100642.31;1710605;83;25881;-74
2022/05/13 09:02:33;;;;;;;1.12;0.57;;;;;;;19.95;41.19;100638.30;1724723;83;27705;-74
2022/05/13 09:05:17;;;;;;;3.25;0.98;;;;;;;20.08;40.79;100624.10;1712237;81;25875;-75
2022/05/13 09:07:44;;;;;;;4.90;1.00;;;;;;;20.26;39.50;100639.65;1723993;83;25892;-74
2022/05/13 09:10:10;;;;;;;3.10;0.82;;;;;;;20.40;40.67;100630.05;1707597;83;26288;-75
2022/05/13 09:12:54;;;;;;;3.00;0.90;;;;;;;20.49;39.75;100628.56;1698865;83;26565;-74
2022/05/13 09:15:40;;;;;;;3.52;0.70;;;;;;;20.56;39.75;100625.12;1719052;81;28012;-75
2022/05/13 09:18:41;;;;;;;4.75;0.90;;;;;;;20.49;38.72;100621.75;1712142;83;25855;-75
2022/05/13 09:21:19;;;;;;;2.15;0.62;;;;;;;20.32;38.76;100616.88;1715551;83;25976;-75
2022/05/13 09:23:46;;;;;;;1.52;0.82;;;;;;;20.32;39.61;100615.52;1715212;83;26234;-74
2022/05/13 09:26:23;;;;;;;2.30;0.90;;;;;;;20.45;39.42;100604.81;1713081;81;25903;-75
2022/05/13 09:29:10;;;;;;;3.80;2.75;;;;;;;20.61;40.28;100609.41;1701993;83;27431;-75
2022/05/13 09:31:45;;;;;;;3.77;1.07;;;;;;;20.76;39.24;100596.00;1714912;83;25926;-75
2022/05/13 09:34:29;;;;;;;1.65;0.78;;;;;;;20.79;38.89;100599.55;1696590;83;25445;-75
2022/05/13 09:37:10;;;;;;;3.80;1.00;;;;;;;20.67;37.37;100596.97;1692032;83;26020;-75
2022/05/13 09:39:44;;;;;;;1.70;0.72;;;;;;;20.57;37.73;100596.02;1699782;83;26209;-75
2022/05/13 09:42:27;;;;;;;2.15;0.98;;;;;;;20.48;37.46;100596.16;1712940;83;27533;-75
2022/05/13 09:45:18;;;;;;;3.52;1.05;;;;;;;20.50;39.68;100586.67;1700235;83;26624;-75
2022/05/13 09:48:01;;;;;;;2.58;0.95;;;;;;;20.64;39.20;100589.30;1703211;83;27107;-75
2022/05/13 09:50:32;;;;;;;2.55;1.12;;;;;;;20.89;38.91;100579.28;1713120;83;26309;-75
2022/05/13 09:53:24;;;;;;;3.40;1.65;;;;;;;21.14;39.29;100577.39;1682125;84;25875;-75
2022/05/13 09:55:54;;;;;;;4.40;1.75;;;;;;;21.31;36.89;100576.75;1696062;83;27436;-75
2022/05/13 09:58:28;;;;;;;6.00;1.10;;;;;;;21.44;37.09;100570.89;1660405;86;26513;-75
2022/05/13 10:01:09;;;;;;;5.75;0.90;;;;;;;21.48;36.87;100563.84;1710067;83;26516;-75
2022/05/13 10:03:38;;;;;;;2.47;1.07;;;;;;;21.51;37.03;100558.68;1696021;83;26326;-75
2022/05/13 10:06:16;;;;;;;3.75;1.55;;;;;;;21.44;37.42;100556.73;1709654;83;26396;-76
2022/05/13 10:08:54;;;;;;;4.62;0.95;;;;;;;21.44;37.28;100555.91;1724159;83;28253;-75
2022/05/13 10:14:32;;;;;;;2.47;0.98;;;;;;;21.31;35.94;100564.49;1714427;83;25807;-76
2022/05/13 10:17:19;;;;;;;4.75;1.10;;;;;;;21.19;36.07;100562.48;1716505;83;26327;-76
2022/05/13 10:20:04;;;;;;;2.50;1.02;;;;;;;21.03;35.93;100566.10;1644483;85;25836;-75
2022/05/13 10:22:54;;;;;;;2.98;1.12;;;;;;;20.88;36.67;100558.56;1719208;83;27539;-75
2022/05/13 10:25:35;;;;;;;4.70;1.27;;;;;;;20.83;37.22;100550.88;1720342;81;25832;-75
2022/05/13 10:28:11;;;;;;;3.77;1.00;;;;;;;20.78;36.06;100546.73;1725264;83;26537;-75
2022/05/13 10:30:43;;;;;;;2.22;1.52;;;;;;;20.75;36.28;100543.44;1710560;83;26216;-75
2022/05/13 10:33:42;;;;;;;2.62;1.00;;;;;;;20.88;36.96;100551.75;1711032;83;25750;-75
2022/05/13 10:36:22;;;;;;;3.33;1.32;;;;;;;20.98;36.88;100540.16;1707937;83;27483;-75
2022/05/13 10:39:06;;;;;;;1.45;0.80;;;;;;;21.04;37.80;100532.36;1708433;83;25810;-75
2022/05/13 10:41:46;;;;;;;3.65;1.22;;;;;;;21.12;36.48;100532.72;1714731;83;25326;-75
2022/05/13 10:44:41;;;;;;;3.25;1.30;;;;;;;21.11;37.30;100525.61;1713488;81;26401;-75
2022/05/13 10:47:21;;;;;;;2.77;1.20;;;;;;;21.25;37.14;100535.03;1715592;83;25964;-75
2022/05/13 10:49:47;;;;;;;4.53;1.23;;;;;;;21.25;36.49;100528.22;1711578;83;28304;-75
2022/05/13 10:52:19;;;;;;;5.00;1.60;;;;;;;21.09;35.75;100516.05;1714168;83;25968;-75
2022/05/13 10:55:10;;;;;;;2.80;1.10;;;;;;;20.97;36.04;100526.25;1714044;83;25755;-75
2022/05/13 10:58:35;;;;;;;5.37;1.20;;;;;;;20.87;36.69;100530.23;1724855;83;26516;-75
2022/05/13 11:01:32;;;;;;;4.08;1.15;;;;;;;20.79;36.56;100523.33;1708451;83;25941;-75
2022/05/13 11:04:30;;;;;;;5.17;1.00;;;;;;;20.84;36.94;100523.92;1698471;83;28315;-75
2022/05/13 11:07:33;;;;;;;4.15;1.20;;;;;;;20.99;36.96;100512.66;1696760;83;25737;-75
2022/05/13 11:10:40;;;;;;;3.67;1.17;;;;;;;21.07;36.79;100513.59;1696002;83;25802;-75
2022/05/13 11:13:34;;;;;;;3.98;1.50;;;;;;;21.11;36.63;100510.63;1708022;83;25726;-75
2022/05/13 11:16:38;;;;;;;5.65;1.72;;;;;;;21.30;37.10;100506.98;1698736;83;43250;-75
2022/05/13 11:19:30;;;;;;;4.35;0.88;;;;;;;21.50;38.28;100506.62;1686311;83;27481;-75
2022/05/13 11:22:31;;;;;;;2.83;1.07;;;;;;;21.56;37.35;100510.73;1684533;84;25905;-75
2022/05/13 11:28:39;;;;;;;3.67;1.10;;;;;;;21.52;36.48;100499.55;1673553;84;25758;-75
2022/05/13 11:31:27;;;;;;;5.00;1.17;;;;;;;21.44;36.19;100500.86;1698869;83;26011;-75
2022/05/13 11:34:05;;;;;;;1.40;0.93;;;;;;;21.47;37.13;100498.13;1651926;86;27482;-76
2022/05/13 11:36:40;;;;;;;3.08;0.98;;;;;;;21.53;36.62;100499.02;1713412;83;25965;-75
2022/05/13 11:39:28;;;;;;;0.85;0.75;;;;;;;21.51;36.09;100493.83;1710068;83;25764;-75
2022/05/13 11:42:15;;;;;;;2.40;1.00;;;;;;;21.46;36.65;100493.25;1696440;83;25820;-75
2022/05/13 11:45:15;;;;;;;4.30;1.00;;;;;;;21.38;36.03;100494.27;1714823;81;25967;-75
2022/05/13 11:47:58;;;;;;;5.15;1.42;;;;;;;21.31;36.18;100491.75;1710253;83;27641;-75
2022/05/13 11:50:31;;;;;;;1.45;1.07;;;;;;;21.32;37.14;100482.48;1723357;83;25779;-75
2022/05/13 11:52:59;;;;;;;4.67;1.27;;;;;;;21.44;36.21;100483.68;1715483;83;26148;-75
2022/05/13 11:55:47;;;;;;;6.00;1.75;;;;;;;21.58;36.87;100482.70;1713767;83;26034;-75
2022/05/13 11:58:48;;;;;;;3.67;1.07;;;;;;;21.65;36.83;100474.57;1713209;83;25926;-75
2022/05/13 12:01:38;;;;;;;3.83;1.30;;;;;;;21.68;36.25;100474.05;1720213;83;28338;-74
2022/05/13 12:04:18;;;;;;;5.17;1.20;;;;;;;21.63;36.15;100476.73;1716801;81;25335;-75
2022/05/13 12:06:51;;;;;;;;;;;;;;;21.60;36.13;100467.70;1721139;83;26450;-75
2022/05/13 12:09:31;;;;;;;4.08;1.60;;;;;;;21.58;35.31;100463.06;1719157;83;26317;-74
2022/05/13 12:12:29;;;;;;;5.30;1.50;;;;;;;21.69;36.15;100462.05;1691639;83;26147;-75
2022/05/13 12:15:07;;;;;;;1.75;0.93;;;;;;;21.93;36.62;100460.60;1708100;81;28267;-75
2022/05/13 12:17:38;;;;;;;4.60;1.17;;;;;;;22.14;36.75;100445.98;1720432;83;25988;-76